Time;durP1;ratioP1;P1;durP2;ratioP2;P2;SDS_P1;SDS_P2;PMS_P1;PMS_P2;Temp;Humidity;BMP_temperature;BMP_pressure;BME280_temperature;BME280_humidity;BME280_pressure;Samples;Min_cycle;Max_cycle;Signal;HPM_P1;HPM_P2
2020/12/18 00:00:34;;;;;;;26.55;16.50;;;;;;;1.50;83.14;100250.31;516662;1095;65223;-63
2020/12/18 00:10:41;;;;;;;25.47;17.97;;;;;;;1.35;83.16;100251.41;517632;1095;65158;-61
2020/12/18 00:20:45;;;;;;;26.00;16.50;;;;;;;1.15;83.90;100244.78;517704;1095;65316;-63
2020/12/18 00:30:49;;;;;;;23.07;16.23;;;;;;;0.98;83.55;100255.38;517693;1095;65214;-57
2020/12/18 00:40:53;;;;;;;25.07;16.27;;;;;;;0.89;83.80;100251.19;517568;1090;65179;-56
2020/12/18 00:50:57;;;;;;;24.17;17.27;;;;;;;0.75;84.07;100256.56;517666;1090;65172;-57
2020/12/18 01:01:02;;;;;;;24.20;17.60;;;;;;;0.84;84.96;100259.01;517806;1095;65259;-57
2020/12/18 01:11:07;;;;;;;25.07;16.73;;;;;;;1.04;84.60;100265.65;517963;1090;65464;-58
2020/12/18 01:21:13;;;;;;;24.80;15.50;;;;;;;1.14;84.42;100262.94;517641;1095;65237;-61
2020/12/18 01:31:18;;;;;;;22.17;14.83;;;;;;;1.25;84.77;100274.83;518135;1095;65229;-58
2020/12/18 01:41:22;;;;;;;28.23;16.53;;;;;;;1.33;84.29;100277.33;517545;1095;65175;-57
2020/12/18 01:51:27;;;;;;;26.50;17.45;;;;;;;1.40;84.16;100280.67;518266;1096;65587;-58
2020/12/18 02:01:31;;;;;;;25.00;16.87;;;;;;;1.56;84.54;100270.94;518338;1094;65175;-59
2020/12/18 02:11:35;;;;;;;27.87;17.83;;;;;;;1.65;84.32;100288.05;518404;1095;65255;-58
2020/12/18 02:21:39;;;;;;;31.90;18.20;;;;;;;1.66;84.37;100295.78;518029;1095;65585;-56
2020/12/18 02:31:43;;;;;;;22.97;17.40;;;;;;;1.76;84.53;100295.63;517528;1095;65201;-56
2020/12/18 02:41:47;;;;;;;27.50;18.85;;;;;;;1.80;84.61;100307.67;517817;1090;65176;-59
2020/12/18 02:51:51;;;;;;;27.10;18.90;;;;;;;1.86;84.92;100302.38;517750;1095;65249;-61
2020/12/18 03:01:55;;;;;;;28.37;19.30;;;;;;;1.86;85.23;100307.55;517780;1095;65127;-58
2020/12/18 03:11:59;;;;;;;28.73;18.93;;;;;;;2.01;85.23;100310.76;517673;1095;65611;-57
2020/12/18 03:22:06;;;;;;;36.53;22.53;;;;;;;2.06;85.68;100316.73;517582;1095;65252;-58
2020/12/18 03:32:10;;;;;;;30.00;20.80;;;;;;;2.06;85.77;100314.98;517536;1095;65256;-58
2020/12/18 03:42:14;;;;;;;33.90;21.43;;;;;;;2.14;85.98;100309.70;518086;1090;65282;-58
2020/12/18 03:52:18;;;;;;;30.27;20.93;;;;;;;2.12;86.08;100311.43;517729;1095;65567;-58
2020/12/18 04:02:23;;;;;;;31.10;21.90;;;;;;;2.17;86.37;100311.35;517914;1090;65569;-58
2020/12/18 04:12:27;;;;;;;28.47;19.70;;;;;;;2.21;86.20;100313.03;517744;1097;65160;-58
2020/12/18 04:22:31;;;;;;;33.20;20.33;;;;;;;2.31;86.00;100316.30;518183;1096;65153;-59
2020/12/18 04:32:35;;;;;;;31.47;20.70;;;;;;;2.36;86.19;100314.46;517902;1095;66012;-59
2020/12/18 04:42:40;;;;;;;34.40;23.05;;;;;;;2.37;86.10;100323.97;517983;1095;65175;-59
2020/12/18 04:52:45;;;;;;;31.10;19.20;;;;;;;2.43;86.20;100331.63;517635;1095;65182;-59
2020/12/18 05:02:49;;;;;;;32.90;22.03;;;;;;;2.44;86.45;100329.90;517293;1095;65233;-58
2020/12/18 05:12:53;;;;;;;30.57;21.50;;;;;;;2.47;86.23;100338.45;518106;1095;65147;-58
2020/12/18 05:22:59;;;;;;;31.20;22.90;;;;;;;2.48;86.26;100345.37;518340;1095;65211;-58
2020/12/18 05:33:03;;;;;;;32.05;24.05;;;;;;;2.50;86.13;100356.56;517363;1095;65230;-59
2020/12/18 05:43:08;;;;;;;37.00;24.20;;;;;;;2.57;86.25;100365.08;517526;1090;65182;-59
2020/12/18 05:53:20;;;;;;;32.15;21.50;;;;;;;2.67;86.47;100368.34;517920;1096;65182;-58
2020/12/18 06:03:37;;;;;;;31.65;20.75;;;;;;;2.66;86.19;100384.79;517466;1096;65658;-58
2020/12/18 06:13:43;;;;;;;35.43;24.87;;;;;;;2.72;86.00;100396.79;517551;1095;65172;-61
2020/12/18 06:23:54;;;;;;;36.23;26.40;;;;;;;2.72;86.27;100405.44;517559;1096;65395;-59
2020/12/18 06:33:59;;;;;;;38.60;25.73;;;;;;;2.79;86.09;100413.95;517790;1095;65226;-58
2020/12/18 06:44:03;;;;;;;39.30;24.97;;;;;;;2.82;86.44;100416.48;517414;1095;65259;-57
2020/12/18 06:54:13;;;;;;;39.70;25.97;;;;;;;2.80;86.33;100426.87;517426;1095;65241;-59
2020/12/18 07:04:22;;;;;;;37.20;25.10;;;;;;;2.77;86.46;100437.31;517522;1095;65229;-58
2020/12/18 07:14:27;;;;;;;38.53;26.63;;;;;;;2.80;86.25;100452.81;517572;1095;65221;-59
2020/12/18 07:24:35;;;;;;;40.30;28.83;;;;;;;2.90;86.33;100452.66;517519;1095;65598;-57
2020/12/18 07:34:39;;;;;;;41.57;27.77;;;;;;;2.97;86.31;100453.39;517825;1095;65156;-58
2020/12/18 07:44:43;;;;;;;44.73;28.47;;;;;;;2.99;86.82;100468.06;518084;1095;65172;-58
2020/12/18 07:54:55;;;;;;;38.63;26.43;;;;;;;3.01;86.29;100487.05;517284;1096;65239;-59
2020/12/18 08:05:01;;;;;;;38.90;26.27;;;;;;;3.12;86.18;100486.86;517279;1095;65314;-58
2020/12/18 08:15:16;;;;;;;41.60;28.37;;;;;;;3.21;86.72;100493.61;517713;1095;65192;-58
2020/12/18 08:25:21;;;;;;;40.23;25.97;;;;;;;3.25;86.13;100484.87;517426;1095;65153;-70
2020/12/18 08:35:25;;;;;;;45.60;29.40;;;;;;;3.32;86.54;100483.00;517914;1095;65252;-69
2020/12/18 08:45:29;;;;;;;44.37;28.50;;;;;;;3.55;86.27;100505.06;517562;1095;65258;-69
2020/12/18 08:55:33;;;;;;;43.47;31.57;;;;;;;3.96;86.36;100502.48;517337;1090;65163;-66
2020/12/18 09:05:38;;;;;;;38.23;26.73;;;;;;;4.37;86.09;100508.48;517662;1095;65155;-59
2020/12/18 09:15:43;;;;;;;37.90;25.87;;;;;;;4.40;85.21;100515.37;517167;1095;65172;-58
2020/12/18 09:25:50;;;;;;;36.70;25.87;;;;;;;4.46;85.52;100510.00;517739;1095;65587;-64
2020/12/18 09:36:00;;;;;;;38.40;26.45;;;;;;;4.44;84.72;100522.20;517636;1095;65173;-65
2020/12/18 09:46:05;;;;;;;38.17;24.63;;;;;;;4.55;85.25;100533.20;518111;1090;65179;-59
2020/12/18 09:56:10;;;;;;;35.83;25.00;;;;;;;4.54;84.61;100523.69;517896;1095;65162;-59
2020/12/18 10:06:14;;;;;;;37.20;25.37;;;;;;;4.61;85.07;100520.03;517707;1095;65233;-61
2020/12/18 10:16:19;;;;;;;41.80;26.40;;;;;;;4.73;84.71;100516.28;517570;1095;65194;-58
2020/12/18 10:26:23;;;;;;;39.60;27.07;;;;;;;4.81;84.38;100525.66;517799;1095;65166;-59
2020/12/18 10:36:27;;;;;;;39.47;25.53;;;;;;;4.83;84.61;100523.87;517677;1095;65172;-60
2020/12/18 10:46:33;;;;;;;39.93;26.17;;;;;;;4.89;84.58;100537.58;508315;1090;10002004;-57
2020/12/18 10:56:42;;;;;;;38.50;25.55;;;;;;;4.89;84.60;100534.11;517150;1095;65421;-57
2020/12/18 11:06:46;;;;;;;35.00;24.33;;;;;;;5.10;84.24;100522.30;516815;1097;65153;-62
2020/12/18 11:16:53;;;;;;;42.53;28.07;;;;;;;5.32;84.08;100511.31;517066;1090;65243;-62
2020/12/18 11:26:57;;;;;;;48.47;34.13;;;;;;;5.46;83.84;100493.55;516884;1090;65146;-65
2020/12/18 11:37:03;;;;;;;38.03;25.93;;;;;;;5.66;83.62;100499.94;517259;1095;65266;-64
2020/12/18 11:47:06;;;;;;;40.97;26.70;;;;;;;5.72;82.98;100499.75;516911;1090;65544;-59
2020/12/18 11:57:10;;;;;;;37.73;27.57;;;;;;;5.56;83.42;100509.75;517222;1095;65156;-63
2020/12/18 12:07:15;;;;;;;38.73;28.13;;;;;;;5.56;83.25;100504.55;516678;1095;65188;-61
2020/12/18 12:17:19;;;;;;;37.03;26.40;;;;;;;5.47;83.06;100510.01;516742;1095;65426;-63
2020/12/18 12:27:24;;;;;;;29.70;22.37;;;;;;;5.29;83.29;100501.83;517237;1095;65502;-61
2020/12/18 12:37:28;;;;;;;42.73;26.40;;;;;;;5.21;83.43;100500.34;516954;1097;65204;-58
2020/12/18 12:47:32;;;;;;;38.73;26.93;;;;;;;5.17;83.48;100500.40;517490;1097;65289;-59
2020/12/18 12:57:36;;;;;;;41.23;28.40;;;;;;;5.07;83.29;100485.92;517111;1095;65271;-57
2020/12/18 13:07:40;;;;;;;47.07;32.40;;;;;;;5.11;83.52;100497.11;517345;1095;65156;-60
2020/12/18 13:17:44;;;;;;;45.63;30.03;;;;;;;5.13;83.67;100500.52;517178;1096;65171;-59
2020/12/18 13:27:48;;;;;;;41.10;27.77;;;;;;;5.12;83.56;100504.02;517162;1095;65150;-59
2020/12/18 13:37:52;;;;;;;48.93;33.03;;;;;;;5.09;83.53;100514.52;517243;1090;65178;-59
2020/12/18 13:47:56;;;;;;;43.07;31.33;;;;;;;5.03;83.53;100511.20;516961;1095;65294;-59
2020/12/18 13:58:00;;;;;;;40.13;28.37;;;;;;;4.95;83.60;100523.55;517081;1090;65184;-59
2020/12/18 14:08:04;;;;;;;40.50;26.45;;;;;;;4.88;83.76;100520.25;517605;1095;65320;-61
2020/12/18 14:18:08;;;;;;;35.97;24.80;;;;;;;4.76;83.60;100531.81;518784;1090;65176;-61
2020/12/18 14:28:15;;;;;;;;;;;;;;;4.69;83.73;100524.20;517348;1090;65262;-60
2020/12/18 14:38:20;;;;;;;47.57;30.03;;;;;;;4.61;83.82;100534.80;517193;1090;65287;-62
2020/12/18 14:48:24;;;;;;;50.23;33.53;;;;;;;4.54;84.09;100533.23;517408;1095;65264;-61
2020/12/18 14:58:28;;;;;;;50.33;35.03;;;;;;;4.45;84.14;100542.98;508690;1090;10001161;-53
2020/12/18 15:08:32;;;;;;;54.27;34.83;;;;;;;4.40;83.82;100543.98;517541;1096;65310;-62
2020/12/18 15:18:36;;;;;;;50.03;32.60;;;;;;;4.33;83.81;100551.91;517519;1095;65153;-55
2020/12/18 15:28:40;;;;;;;64.50;41.40;;;;;;;4.28;84.02;100566.77;517755;1095;65653;-54
2020/12/18 15:38:44;;;;;;;72.87;43.47;;;;;;;4.24;84.61;100567.70;517307;1095;65262;-57
2020/12/18 15:48:48;;;;;;;71.27;45.60;;;;;;;4.12;84.77;100566.25;517369;1097;65284;-56
2020/12/18 15:58:52;;;;;;;50.07;33.97;;;;;;;4.00;84.32;100569.95;516938;1097;65233;-54
2020/12/18 16:08:56;;;;;;;47.33;31.00;;;;;;;3.89;84.60;100575.38;516422;1095;65485;-55
2020/12/18 16:19:00;;;;;;;46.60;33.30;;;;;;;3.63;84.07;100581.93;516931;1097;65153;-56
2020/12/18 16:29:05;;;;;;;50.57;33.90;;;;;;;3.48;84.58;100579.63;516967;1097;65214;-56
2020/12/18 16:39:08;;;;;;;56.20;36.10;;;;;;;3.32;85.05;100581.66;517352;1095;65239;-49
2020/12/18 16:49:13;;;;;;;58.83;40.27;;;;;;;3.15;84.93;100587.14;516574;1095;65157;-54
2020/12/18 16:59:17;;;;;;;64.87;42.47;;;;;;;2.89;84.48;100591.04;516909;1096;65273;-56
2020/12/18 17:09:21;;;;;;;59.37;39.73;;;;;;;2.61;84.60;100596.67;517105;1095;65154;-55
2020/12/18 17:19:25;;;;;;;68.20;43.63;;;;;;;2.35;85.02;100606.52;516938;1090;65159;-55
2020/12/18 17:29:30;;;;;;;74.03;50.63;;;;;;;2.09;84.87;100601.67;521224;1096;65179;-54
2020/12/18 17:39:34;;;;;;;88.23;58.57;;;;;;;1.87;85.21;100606.27;517370;1095;65259;-56
2020/12/18 17:49:38;;;;;;;117.47;79.07;;;;;;;1.64;85.48;100605.64;516925;1090;65315;-55
2020/12/18 17:59:43;;;;;;;104.87;65.97;;;;;;;1.51;85.71;100598.89;517546;1095;65217;-56
2020/12/18 18:09:47;;;;;;;125.87;79.87;;;;;;;1.30;85.68;100584.44;517611;1095;65173;-54
2020/12/18 18:19:51;;;;;;;106.70;71.47;;;;;;;1.22;86.01;100584.52;517389;1096;65188;-57
2020/12/18 18:29:55;;;;;;;107.20;68.30;;;;;;;1.13;86.47;100576.84;517441;1095;65233;-57
2020/12/18 18:39:59;;;;;;;98.07;60.73;;;;;;;1.08;87.09;100571.70;517987;1095;65311;-56
2020/12/18 18:50:04;;;;;;;90.87;58.23;;;;;;;0.98;87.36;100569.19;517741;1090;65179;-54
2020/12/18 19:00:08;;;;;;;79.97;51.63;;;;;;;0.95;87.50;100564.05;517625;1095;65185;-53
2020/12/18 19:10:18;;;;;;;73.93;52.33;;;;;;;0.93;87.76;100563.22;517575;1095;65232;-59
2020/12/18 19:20:22;;;;;;;80.23;52.67;;;;;;;0.86;87.01;100558.08;517374;1095;65163;-60
2020/12/18 19:30:26;;;;;;;77.60;48.30;;;;;;;0.71;87.36;100559.09;517863;1090;65191;-61
2020/12/18 19:40:30;;;;;;;74.40;47.40;;;;;;;0.48;86.80;100562.70;517603;1090;65587;-60
2020/12/18 19:50:34;;;;;;;92.23;59.87;;;;;;;0.33;86.83;100550.72;508034;1090;10001363;-61
2020/12/18 20:00:38;;;;;;;87.47;61.27;;;;;;;0.13;86.78;100544.81;517267;1090;66773;-56
2020/12/18 20:10:42;;;;;;;101.20;66.47;;;;;;;-0.04;86.67;100549.20;517092;1095;65274;-60
2020/12/18 20:20:47;;;;;;;76.23;54.97;;;;;;;-0.07;87.61;100556.97;516988;1090;65249;-60
2020/12/18 20:30:53;;;;;;;78.60;51.10;;;;;;;-0.15;86.29;100557.84;516642;1090;65159;-63
2020/12/18 20:40:57;;;;;;;76.90;47.63;;;;;;;-0.21;86.72;100551.85;516473;1090;65564;-65
2020/12/18 20:51:01;;;;;;;82.13;54.57;;;;;;;-0.35;85.94;100549.31;516483;1090;65211;-63
2020/12/18 21:01:05;;;;;;;98.20;63.47;;;;;;;-0.40;87.39;100551.94;516783;1090;65238;-62
2020/12/18 21:11:12;;;;;;;82.30;53.67;;;;;;;-0.33;87.40;100565.68;516403;1097;65258;-63
2020/12/18 21:21:16;;;;;;;87.90;56.20;;;;;;;-0.21;87.64;100568.22;517068;1095;65368;-70
2020/12/18 21:31:20;;;;;;;81.37;59.03;;;;;;;-0.25;87.34;100570.81;516911;1095;65172;-63
2020/12/18 21:41:29;;;;;;;71.10;45.27;;;;;;;-0.30;87.31;100558.76;516600;1090;65755;-65
2020/12/18 21:51:34;;;;;;;69.97;47.43;;;;;;;-0.37;87.12;100551.92;517308;1090;65587;-64
2020/12/18 22:01:38;;;;;;;71.10;46.20;;;;;;;-0.48;87.15;100539.03;516311;1090;65643;-61
2020/12/18 22:11:42;;;;;;;69.60;39.43;;;;;;;-0.44;87.47;100540.77;516785;1097;65223;-64
2020/12/18 22:21:50;;;;;;;67.70;41.27;;;;;;;-0.41;88.15;100544.19;517718;1095;65178;-62
2020/12/18 22:31:59;;;;;;;72.57;41.33;;;;;;;-0.40;88.76;100539.03;517685;1095;65163;-63
2020/12/18 22:42:03;;;;;;;70.47;43.00;;;;;;;-0.63;87.21;100544.25;517835;1095;65179;-63
2020/12/18 22:52:07;;;;;;;73.25;45.65;;;;;;;-0.72;87.83;100537.41;517655;1097;65187;-64
2020/12/18 23:02:13;;;;;;;73.80;47.25;;;;;;;-0.73;88.67;100553.74;517537;1095;65159;-64
2020/12/18 23:12:17;;;;;;;74.27;41.80;;;;;;;-0.75;88.61;100576.08;518002;1095;65163;-63
2020/12/18 23:22:21;;;;;;;68.07;39.67;;;;;;;-0.74;88.38;100560.61;517755;1095;65632;-63
2020/12/18 23:32:25;;;;;;;65.63;38.83;;;;;;;-0.90;87.68;100549.45;517778;1095;65332;-64
2020/12/18 23:42:31;;;;;;;77.77;48.53;;;;;;;-1.19;87.79;100547.77;517343;1095;65185;-63
2020/12/18 23:52:34;;;;;;;82.80;52.10;;;;;;;-1.30;88.22;100521.98;516615;1090;65555;-63
